Time;durP1;ratioP1;P1;durP2;ratioP2;P2;SDS_P1;SDS_P2;PMS_P1;PMS_P2;Temp;Humidity;BMP_temperature;BMP_pressure;BME280_temperature;BME280_humidity;BME280_pressure;Samples;Min_cycle;Max_cycle;Signal;HPM_P1;HPM_P2
2022/05/16 00:02:08;;;;;;;4.60;3.53;;;23.40;51.10;;;;;;4996159;28;20457;-65
2022/05/16 00:04:37;;;;;;;4.33;3.93;;;23.40;51.20;;;;;;4997150;28;20435;-65
2022/05/16 00:07:03;;;;;;;4.73;3.70;;;23.30;51.40;;;;;;4995055;28;20432;-65
2022/05/16 00:09:28;;;;;;;5.27;3.20;;;23.20;51.80;;;;;;4993753;28;20439;-65
2022/05/16 00:11:54;;;;;;;4.43;3.77;;;23.20;52.00;;;;;;4997422;28;20349;-65
2022/05/16 00:14:21;;;;;;;4.00;3.50;;;23.10;51.90;;;;;;4999098;28;20205;-65
2022/05/16 00:16:46;;;;;;;6.23;3.50;;;23.10;51.90;;;;;;4991930;28;20467;-65
2022/05/16 00:19:12;;;;;;;3.63;3.27;;;23.10;52.20;;;;;;4995587;28;20205;-65
2022/05/16 00:21:38;;;;;;;5.60;3.33;;;23.10;51.90;;;;;;4998388;28;20303;-65
2022/05/16 00:24:04;;;;;;;5.50;3.80;;;23.10;52.00;;;;;;4990943;28;20496;-65
2022/05/16 00:26:29;;;;;;;3.97;3.67;;;23.20;51.80;;;;;;4997205;28;20444;-65
2022/05/16 00:28:55;;;;;;;4.17;3.67;;;23.10;51.80;;;;;;4994749;28;20213;-65
2022/05/16 00:31:23;;;;;;;5.50;3.50;;;23.00;52.30;;;;;;4993404;28;20184;-65
2022/05/16 00:33:49;;;;;;;3.97;3.53;;;23.10;52.10;;;;;;4994120;28;20568;-65
2022/05/16 00:36:14;;;;;;;3.57;3.27;;;23.30;51.80;;;;;;4995966;28;20432;-65
2022/05/16 00:38:40;;;;;;;6.93;3.77;;;23.10;52.20;;;;;;5011538;28;20228;-65
2022/05/16 00:41:06;;;;;;;3.83;3.53;;;23.00;52.60;;;;;;4994261;28;20268;-65
2022/05/16 00:43:55;;;;;;;3.73;3.20;;;23.00;53.00;;;;;;5007267;28;20189;-65
2022/05/16 00:46:23;;;;;;;5.83;3.57;;;23.00;53.30;;;;;;4999474;28;20429;-65
2022/05/16 00:48:49;;;;;;;4.40;3.93;;;23.00;53.60;;;;;;4994512;28;20933;-65
2022/05/16 00:51:27;;;;;;;6.63;4.23;;;22.80;53.70;;;;;;4994590;28;20530;-65
2022/05/16 00:53:57;;;;;;;6.70;4.63;;;22.80;54.60;;;;;;4998891;28;20478;-65
2022/05/16 00:56:26;;;;;;;6.70;4.80;;;22.50;57.70;;;;;;5011106;28;20420;-65
2022/05/16 00:58:52;;;;;;;4.73;4.07;;;22.30;56.10;;;;;;4992506;28;20455;-65
2022/05/16 01:06:49;;;;;;;4.43;4.03;;;22.10;57.20;;;;;;4997546;28;20474;-65
2022/05/16 01:09:14;;;;;;;5.67;3.90;;;22.00;57.40;;;;;;4999905;28;20456;-65
2022/05/16 01:11:41;;;;;;;4.63;3.90;;;22.00;59.70;;;;;;4999716;28;20486;-65
2022/05/16 01:14:06;;;;;;;4.43;4.03;;;21.70;58.30;;;;;;5001194;28;20622;-65
2022/05/16 01:16:32;;;;;;;4.80;3.90;;;21.80;58.40;;;;;;5002503;28;20464;-65
2022/05/16 01:18:58;;;;;;;5.70;4.43;;;21.60;58.70;;;;;;4996298;28;20225;-65
2022/05/16 01:21:33;;;;;;;5.70;3.90;;;21.80;58.40;;;;;;4998097;28;20427;-65
2022/05/16 01:24:16;;;;;;;4.60;4.10;;;21.70;58.10;;;;;;5001828;28;20184;-65
2022/05/16 01:26:42;;;;;;;8.00;4.43;;;21.70;58.50;;;;;;4998460;28;20424;-65
2022/05/16 01:29:09;;;;;;;4.47;4.07;;;21.70;59.10;;;;;;5000742;28;20636;-65
2022/05/16 01:31:35;;;;;;;5.03;4.00;;;21.60;58.80;;;;;;4999518;28;20194;-65
2022/05/16 01:34:02;;;;;;;5.83;4.23;;;21.60;59.70;;;;;;5000736;28;20428;-65
2022/05/16 01:36:28;;;;;;;5.37;4.10;;;21.50;59.20;;;;;;5001521;28;20503;-65
2022/05/16 01:38:53;;;;;;;4.70;4.07;;;21.30;59.90;;;;;;4999151;28;20456;-65
2022/05/16 01:41:22;;;;;;;6.17;4.63;;;21.50;70.00;;;;;;4999978;28;20192;-65
2022/05/16 01:43:51;;;;;;;6.33;4.67;;;21.00;67.50;;;;;;4999479;28;20185;-65
2022/05/16 01:46:22;;;;;;;6.53;4.87;;;21.00;65.30;;;;;;4994554;28;20433;-65
2022/05/16 01:48:52;;;;;;;6.10;4.40;;;20.80;67.80;;;;;;4997437;28;20456;-65
2022/05/16 01:51:17;;;;;;;5.43;4.30;;;20.80;64.00;;;;;;5000854;28;20440;-65
2022/05/16 01:53:44;;;;;;;7.03;4.87;;;20.80;62.60;;;;;;4998833;28;20463;-65
2022/05/16 01:56:10;;;;;;;4.80;4.40;;;20.80;63.80;;;;;;4998092;28;20280;-65
2022/05/16 01:58:36;;;;;;;7.23;4.47;;;20.80;65.10;;;;;;4996561;28;20457;-65
2022/05/16 02:01:02;;;;;;;6.43;5.17;;;20.50;65.50;;;;;;4998120;28;20177;-65
2022/05/16 02:03:28;;;;;;;5.00;4.43;;;20.50;68.60;;;;;;4999186;28;20424;-64
2022/05/16 02:05:53;;;;;;;6.50;4.43;;;20.50;68.80;;;;;;4992697;28;21002;-64
2022/05/16 02:08:19;;;;;;;6.80;5.20;;;20.70;68.40;;;;;;4999959;28;20280;-64
2022/05/16 02:10:46;;;;;;;4.37;3.97;;;20.60;65.00;;;;;;4993256;28;20217;-64
2022/05/16 02:13:12;;;;;;;7.50;4.27;;;20.70;65.60;;;;;;4996349;28;20288;-65
2022/05/16 02:15:39;;;;;;;6.90;4.67;;;20.60;65.80;;;;;;4999236;28;20961;-64
2022/05/16 02:18:07;;;;;;;6.40;4.33;;;20.50;66.80;;;;;;4999528;28;20867;-65
2022/05/16 02:20:32;;;;;;;6.10;4.40;;;20.50;67.00;;;;;;4995558;28;20456;-65
2022/05/16 02:25:47;;;;;;;7.70;5.00;;;20.70;67.40;;;;;;5001487;28;20235;-64
2022/05/16 02:28:16;;;;;;;5.20;4.70;;;20.80;68.00;;;;;;4997640;28;20501;-64
2022/05/16 02:30:42;;;;;;;5.63;4.53;;;20.70;68.50;;;;;;4994973;28;20820;-64
2022/05/16 02:33:09;;;;;;;6.23;5.60;;;20.70;69.40;;;;;;5000373;28;20463;-64
2022/05/16 02:35:35;;;;;;;6.50;4.30;;;20.60;69.70;;;;;;4997134;28;20424;-65
2022/05/16 02:38:02;;;;;;;5.90;4.80;;;20.60;70.30;;;;;;5000313;28;20938;-64
2022/05/16 02:40:30;;;;;;;10.07;5.30;;;20.50;70.90;;;;;;4997596;28;20258;-65
2022/05/16 02:42:56;;;;;;;6.77;5.00;;;20.50;71.50;;;;;;4997193;28;20453;-64
2022/05/16 02:45:22;;;;;;;5.47;4.97;;;20.60;72.20;;;;;;4997169;28;20957;-64
2022/05/16 02:47:47;;;;;;;7.67;4.70;;;20.70;72.10;;;;;;4998738;28;20452;-64
2022/05/16 02:50:13;;;;;;;10.33;5.17;;;20.60;72.80;;;;;;4996680;28;20193;-64
2022/05/16 02:52:39;;;;;;;8.47;4.43;;;20.40;74.10;;;;;;4997153;28;21000;-64
2022/05/16 02:55:05;;;;;;;6.13;5.30;;;20.30;75.80;;;;;;5000480;28;20216;-64
2022/05/16 02:57:32;;;;;;;4.90;4.40;;;20.30;76.40;;;;;;4997564;28;20225;-64
2022/05/16 02:59:58;;;;;;;14.63;5.67;;;20.40;76.60;;;;;;4983732;28;21024;-64
2022/05/16 03:02:23;;;;;;;9.27;4.60;;;20.30;77.90;;;;;;4996745;28;20413;-65
2022/05/16 03:04:52;;;;;;;8.53;6.17;;;20.40;80.10;;;;;;4995359;28;21121;-64
2022/05/16 03:07:18;;;;;;;6.20;5.17;;;20.50;78.70;;;;;;4998322;28;20259;-64
2022/05/16 03:09:45;;;;;;;4.77;4.37;;;20.50;78.80;;;;;;5010065;28;20520;-64
2022/05/16 03:12:10;;;;;;;5.43;4.80;;;20.50;79.50;;;;;;4995957;28;20468;-64
2022/05/16 03:14:36;;;;;;;5.60;4.60;;;20.50;79.50;;;;;;4999331;28;20479;-65
2022/05/16 03:17:05;;;;;;;5.43;4.67;;;20.50;81.10;;;;;;4997454;28;20559;-64
2022/05/16 03:19:30;;;;;;;5.37;4.83;;;20.40;81.50;;;;;;4996759;28;20200;-64
2022/05/16 03:21:56;;;;;;;8.03;4.97;;;20.30;82.40;;;;;;4996579;28;20779;-64
2022/05/16 03:24:22;;;;;;;7.07;5.00;;;20.50;81.60;;;;;;4994881;28;20243;-64
2022/05/16 03:26:48;;;;;;;4.90;4.30;;;20.50;82.40;;;;;;4996727;28;20512;-65
2022/05/16 03:29:16;;;;;;;5.20;4.30;;;20.40;82.40;;;;;;4995699;28;20550;-64
2022/05/16 03:31:42;;;;;;;5.80;4.63;;;20.40;83.50;;;;;;4997913;28;20431;-65
2022/05/16 03:34:09;;;;;;;6.03;4.53;;;20.50;83.00;;;;;;4994018;28;20891;-64
2022/05/16 03:36:35;;;;;;;8.20;4.97;;;20.60;82.40;;;;;;4995588;28;20516;-64
2022/05/16 03:41:45;;;;;;;7.70;5.60;;;20.60;82.10;;;;;;4997904;28;20212;-64
2022/05/16 03:44:10;;;;;;;8.80;5.80;;;20.60;82.00;;;;;;4994439;28;20432;-64
2022/05/16 03:46:37;;;;;;;6.00;5.13;;;20.70;82.20;;;;;;4994926;28;20189;-65
2022/05/16 03:49:03;;;;;;;5.50;4.90;;;20.50;82.90;;;;;;4999515;28;20212;-65
2022/05/16 03:51:29;;;;;;;5.97;5.37;;;20.60;83.00;;;;;;5007910;28;20428;-64
2022/05/16 03:53:56;;;;;;;5.80;5.20;;;20.80;82.90;;;;;;4995538;28;20483;-64
2022/05/16 03:56:24;;;;;;;8.53;5.60;;;20.80;82.80;;;;;;4997930;28;20540;-64
2022/05/16 03:58:50;;;;;;;5.00;4.50;;;20.70;83.30;;;;;;4998384;28;20444;-64
2022/05/16 04:01:16;;;;;;;6.80;5.10;;;20.50;85.20;;;;;;4993892;28;20519;-64
2022/05/16 04:03:42;;;;;;;5.43;4.60;;;20.50;85.70;;;;;;4998848;28;20527;-64
2022/05/16 04:06:08;;;;;;;5.87;5.33;;;20.60;87.30;;;;;;4997916;28;20428;-64
2022/05/16 04:08:34;;;;;;;7.50;5.03;;;20.60;86.80;;;;;;4998272;28;20207;-64
2022/05/16 04:11:02;;;;;;;8.23;5.33;;;20.50;87.90;;;;;;4993068;28;20243;-64
2022/05/16 04:13:28;;;;;;;8.00;5.07;;;20.60;88.10;;;;;;4992446;28;20471;-64
2022/05/16 04:15:54;;;;;;;7.30;5.73;;;20.70;88.50;;;;;;4997397;28;21429;-63
2022/05/16 04:18:20;;;;;;;7.50;5.40;;;20.70;89.10;;;;;;4998552;28;20459;-64
2022/05/16 04:20:46;;;;;;;6.33;5.07;;;20.60;89.80;;;;;;4991970;28;20524;-64
2022/05/16 04:23:12;;;;;;;5.80;5.03;;;20.60;90.30;;;;;;4996052;28;20181;-64
2022/05/16 04:25:38;;;;;;;5.43;4.93;;;20.80;90.30;;;;;;4998075;28;20517;-64
2022/05/16 04:28:08;;;;;;;5.97;5.37;;;20.80;90.50;;;;;;4995194;28;20452;-64
2022/05/16 04:30:34;;;;;;;8.40;4.73;;;20.70;90.60;;;;;;4993212;28;20219;-64
2022/05/16 04:33:00;;;;;;;6.00;5.40;;;20.60;91.30;;;;;;4995097;28;20466;-63
2022/05/16 04:35:26;;;;;;;5.80;4.80;;;20.60;92.60;;;;;;4997746;28;20467;-64
2022/05/16 04:37:52;;;;;;;5.50;4.97;;;20.70;92.70;;;;;;4994622;28;20472;-64
2022/05/16 04:40:19;;;;;;;8.37;5.60;;;20.80;93.10;;;;;;4998122;28;20822;-64
2022/05/16 04:42:45;;;;;;;9.10;4.90;;;20.90;94.00;;;;;;5001439;28;20419;-64
2022/05/16 04:45:13;;;;;;;8.60;5.53;;;20.70;95.50;;;;;;4999752;28;20434;-64
2022/05/16 04:47:39;;;;;;;6.30;5.70;;;20.70;96.10;;;;;;5001295;28;20526;-64
2022/05/16 04:50:05;;;;;;;6.07;5.40;;;20.80;96.60;;;;;;4995217;28;20432;-64
2022/05/16 04:52:32;;;;;;;5.47;4.90;;;21.00;97.00;;;;;;5000596;28;20367;-64
2022/05/16 04:54:59;;;;;;;6.23;5.57;;;21.00;96.80;;;;;;4998419;28;20413;-64
2022/05/16 04:57:24;;;;;;;7.80;5.00;;;21.00;97.40;;;;;;5000067;28;20597;-63
2022/05/16 04:59:50;;;;;;;5.70;5.20;;;21.10;98.00;;;;;;4998768;28;20428;-64
2022/05/16 05:02:17;;;;;;;9.70;5.40;;;21.10;98.00;;;;;;4997523;28;20679;-64
2022/05/16 05:04:43;;;;;;;7.23;5.53;;;21.10;97.60;;;;;;4999515;28;20200;-64
2022/05/16 05:07:09;;;;;;;6.97;5.57;;;21.10;98.00;;;;;;5001810;28;20432;-64
2022/05/16 05:14:32;;;;;;;6.90;5.97;;;21.20;98.50;;;;;;5000894;28;20463;-64
2022/05/16 05:15:09;;;;;;;8.80;5.83;;;21.10;99.60;;;;;;5002315;28;20426;-64
2022/05/16 05:17:35;;;;;;;9.50;5.57;;;21.00;99.90;;;;;;4998279;28;20471;-64
2022/05/16 05:20:00;;;;;;;6.13;5.50;;;21.00;99.90;;;;;;5000359;28;20806;-64
2022/05/16 05:22:26;;;;;;;7.27;5.90;;;20.90;99.90;;;;;;5000735;28;20490;-64
2022/05/16 05:24:52;;;;;;;10.30;5.73;;;20.90;99.90;;;;;;4998505;28;20777;-64
2022/05/16 05:27:17;;;;;;;8.13;6.03;;;21.00;99.90;;;;;;5002547;28;20211;-64
2022/05/16 05:29:43;;;;;;;7.80;6.07;;;21.00;99.90;;;;;;4997460;28;20323;-65
2022/05/16 05:32:09;;;;;;;8.73;5.57;;;20.80;99.90;;;;;;4998485;28;20214;-64
2022/05/16 05:34:38;;;;;;;6.60;5.90;;;20.90;99.90;;;;;;4998482;28;20439;-64
2022/05/16 05:37:04;;;;;;;8.90;6.07;;;21.00;99.90;;;;;;5000928;28;20178;-64
2022/05/16 05:39:31;;;;;;;8.17;6.17;;;21.10;99.90;;;;;;4999610;28;20420;-64
2022/05/16 05:41:58;;;;;;;12.23;6.77;;;21.10;99.90;;;;;;5013983;28;20724;-66
2022/05/16 05:44:24;;;;;;;10.23;6.33;;;21.10;99.90;;;;;;4998412;28;20435;-65
2022/05/16 05:46:49;;;;;;;10.60;7.50;;;21.20;99.90;;;;;;5013907;28;20964;-64
2022/05/16 05:49:15;;;;;;;8.40;6.87;;;21.30;99.90;;;;;;5002056;28;20448;-64
2022/05/16 05:51:41;;;;;;;10.83;6.43;;;21.30;99.90;;;;;;4992410;28;20435;-65
2022/05/16 05:54:07;;;;;;;8.40;6.30;;;21.40;99.90;;;;;;4999934;28;20185;-65
2022/05/16 05:56:33;;;;;;;8.30;6.77;;;21.40;99.90;;;;;;4998975;28;20450;-65
2022/05/16 05:58:59;;;;;;;20.53;7.17;;;21.20;99.90;;;;;;4996496;28;20938;-64
2022/05/16 06:01:25;;;;;;;6.63;5.97;;;21.30;99.90;;;;;;4998232;28;20448;-64
2022/05/16 06:03:51;;;;;;;8.13;6.70;;;21.20;99.90;;;;;;4999655;28;20177;-65
2022/05/16 06:06:17;;;;;;;7.20;6.17;;;21.30;99.90;;;;;;5001000;28;20189;-64
2022/05/16 06:08:43;;;;;;;9.20;6.80;;;21.50;99.90;;;;;;4996814;28;20255;-64
2022/05/16 06:11:08;;;;;;;9.87;6.87;;;21.60;99.90;;;;;;4995194;28;20671;-63
2022/05/16 06:13:34;;;;;;;9.27;6.53;;;21.70;99.90;;;;;;5010900;28;20467;-64
2022/05/16 06:16:00;;;;;;;8.13;7.00;;;21.80;99.90;;;;;;4989094;28;20424;-64
2022/05/16 06:18:28;;;;;;;7.17;6.47;;;21.60;99.90;;;;;;4998713;28;20213;-64
2022/05/16 06:20:54;;;;;;;7.80;6.17;;;21.70;99.90;;;;;;4998156;28;20268;-64
2022/05/16 06:23:19;;;;;;;8.83;7.00;;;21.80;99.90;;;;;;5001288;28;20991;-64
2022/05/16 06:25:45;;;;;;;8.50;6.37;;;21.80;99.90;;;;;;5000395;28;20235;-64
2022/05/16 06:28:23;;;;;;;6.57;6.00;;;21.80;99.90;;;;;;4996592;28;20280;-64
2022/05/16 06:30:52;;;;;;;6.87;6.20;;;21.60;99.90;;;;;;4997035;28;20301;-64
2022/05/16 06:33:20;;;;;;;7.70;6.63;;;21.70;99.90;;;;;;4997663;28;20921;-64
2022/05/16 06:35:47;;;;;;;8.90;6.20;;;21.70;99.90;;;;;;4998956;28;20463;-64
2022/05/16 06:38:16;;;;;;;8.30;6.50;;;21.70;99.90;;;;;;4998564;28;20542;-64
2022/05/16 06:40:46;;;;;;;7.30;5.97;;;21.70;99.90;;;;;;4999805;28;20784;-64
2022/05/16 06:43:12;;;;;;;11.73;7.53;;;21.90;99.90;;;;;;4998230;28;20469;-64
2022/05/16 06:45:38;;;;;;;7.50;6.00;;;21.90;99.90;;;;;;4996766;28;20436;-64
2022/05/16 06:48:04;;;;;;;8.13;6.73;;;22.00;99.90;;;;;;4996515;28;20526;-64
2022/05/16 06:50:30;;;;;;;8.73;5.87;;;22.10;99.90;;;;;;4997974;28;20669;-64
2022/05/16 06:52:57;;;;;;;8.60;6.70;;;22.00;99.90;;;;;;4998762;28;20464;-64
2022/05/16 06:55:23;;;;;;;7.67;5.87;;;22.10;99.90;;;;;;4995700;28;20417;-64
2022/05/16 06:57:49;;;;;;;6.90;6.10;;;22.40;99.90;;;;;;4999095;28;20472;-64
2022/05/16 07:00:16;;;;;;;7.10;5.80;;;22.60;99.90;;;;;;5017015;28;20516;-64
2022/05/16 07:02:42;;;;;;;32.77;27.67;;;22.70;99.90;;;;;;4997336;28;20618;-64
2022/05/16 07:05:08;;;;;;;7.23;6.50;;;22.70;99.90;;;;;;4999368;28;20797;-64
2022/05/16 07:07:34;;;;;;;7.80;6.13;;;22.60;99.90;;;;;;4997143;28;20464;-63
2022/05/16 07:10:01;;;;;;;6.73;5.80;;;22.60;99.90;;;;;;4992540;28;20444;-64
2022/05/16 07:12:27;;;;;;;6.57;5.63;;;22.60;99.90;;;;;;4999870;28;20200;-64
2022/05/16 07:14:53;;;;;;;7.17;5.37;;;22.60;99.90;;;;;;4995279;28;20435;-64
2022/05/16 07:17:19;;;;;;;6.20;5.60;;;22.60;99.90;;;;;;4996467;28;20333;-64
2022/05/16 07:19:46;;;;;;;7.10;6.50;;;22.70;99.90;;;;;;4997628;28;20552;-64
2022/05/16 07:22:15;;;;;;;6.07;5.40;;;22.80;99.90;;;;;;4994206;28;20960;-64
2022/05/16 07:24:42;;;;;;;8.47;5.97;;;22.80;99.90;;;;;;4993759;28;20531;-64
2022/05/16 07:29:53;;;;;;;10.50;5.97;;;22.90;99.90;;;;;;4995325;28;20978;-64
2022/05/16 07:32:19;;;;;;;6.83;5.47;;;23.00;99.90;;;;;;4996774;28;20468;-64
2022/05/16 07:34:45;;;;;;;7.60;5.67;;;23.00;99.90;;;;;;4994532;28;20189;-64
2022/05/16 07:37:10;;;;;;;6.40;5.63;;;22.70;99.90;;;;;;4996907;28;20436;-64
2022/05/16 07:39:36;;;;;;;6.27;5.47;;;22.90;99.90;;;;;;4995628;28;20626;-64
2022/05/16 07:42:04;;;;;;;5.60;5.10;;;23.00;99.90;;;;;;4994051;28;20178;-64
2022/05/16 07:44:31;;;;;;;6.83;5.70;;;23.10;99.90;;;;;;4998867;28;20439;-64
2022/05/16 07:46:57;;;;;;;6.83;4.83;;;23.10;99.90;;;;;;4998529;28;20439;-65
2022/05/16 07:49:23;;;;;;;9.43;6.00;;;23.10;99.90;;;;;;4996245;28;20444;-65
2022/05/16 07:51:48;;;;;;;5.90;5.40;;;23.10;99.90;;;;;;4995678;28;20618;-64
2022/05/16 07:54:14;;;;;;;6.20;5.60;;;23.10;99.90;;;;;;4999238;28;20177;-64
2022/05/16 07:56:40;;;;;;;6.77;6.00;;;23.10;99.90;;;;;;4996016;28;20204;-64
2022/05/16 07:59:06;;;;;;;8.53;6.00;;;23.00;99.90;;;;;;4997562;28;20208;-65
2022/05/16 08:01:32;;;;;;;8.90;5.30;;;23.00;99.90;;;;;;4995364;28;20196;-64
2022/05/16 08:03:58;;;;;;;7.00;6.30;;;23.20;99.90;;;;;;5000307;28;20526;-64
2022/05/16 08:06:27;;;;;;;7.33;6.07;;;23.10;99.90;;;;;;4996742;28;20529;-64
2022/05/16 08:11:40;;;;;;;8.60;5.80;;;23.00;99.90;;;;;;4992668;28;20467;-64
2022/05/16 08:14:06;;;;;;;7.23;6.40;;;23.10;99.90;;;;;;4994180;28;20527;-64
2022/05/16 08:16:32;;;;;;;10.90;6.57;;;23.10;99.90;;;;;;4995285;28;20197;-64
2022/05/16 08:18:57;;;;;;;7.53;6.07;;;23.00;99.90;;;;;;4994858;28;20465;-64
2022/05/16 08:21:23;;;;;;;6.00;5.50;;;22.90;99.90;;;;;;4997224;28;20329;-65
2022/05/16 08:23:49;;;;;;;9.07;6.13;;;22.80;99.90;;;;;;4998145;28;20196;-64
2022/05/16 08:26:14;;;;;;;6.57;5.93;;;22.70;99.90;;;;;;4996490;28;20366;-64
2022/05/16 08:28:40;;;;;;;7.10;6.33;;;22.70;99.90;;;;;;4996624;28;20224;-64
2022/05/16 08:31:07;;;;;;;12.53;6.67;;;22.70;99.90;;;;;;4996796;28;20683;-63
2022/05/16 08:33:33;;;;;;;7.40;6.63;;;22.70;99.90;;;;;;4994830;28;20550;-63
2022/05/16 08:41:47;;;;;;;7.87;6.17;;;22.80;99.90;;;;;;4996120;28;20948;-64
2022/05/16 08:44:41;;;;;;;11.83;6.20;;;22.80;99.90;;;;;;4999296;28;20519;-64
2022/05/16 08:47:27;;;;;;;6.60;5.73;;;22.90;99.90;;;;;;4996062;28;20462;-64
2022/05/16 08:50:00;;;;;;;9.07;6.07;;;22.90;99.90;;;;;;4996819;28;20421;-64
2022/05/16 08:52:38;;;;;;;8.50;5.60;;;23.10;99.90;;;;;;4994954;28;20521;-64
2022/05/16 08:55:25;;;;;;;10.83;5.63;;;23.20;99.90;;;;;;4994030;28;20452;-64
2022/05/16 08:58:07;;;;;;;7.83;5.57;;;23.40;99.90;;;;;;4996997;28;20476;-64
2022/05/16 09:00:41;;;;;;;7.37;5.27;;;23.50;99.90;;;;;;4991746;28;20427;-64
2022/05/16 09:03:12;;;;;;;8.53;6.20;;;23.60;99.90;;;;;;4995580;28;20428;-64
2022/05/16 09:05:51;;;;;;;10.23;6.43;;;23.80;99.90;;;;;;4996949;28;20438;-64
2022/05/16 09:08:41;;;;;;;9.13;5.87;;;23.90;99.90;;;;;;4995775;28;20875;-64
2022/05/16 09:11:18;;;;;;;8.37;5.67;;;24.00;99.90;;;;;;4996419;28;20823;-64
2022/05/16 09:13:52;;;;;;;8.53;5.73;;;24.10;99.90;;;;;;4994915;28;20828;-64
2022/05/16 09:16:42;;;;;;;5.97;5.37;;;24.30;99.90;;;;;;4994906;28;20440;-65
2022/05/16 09:19:45;;;;;;;8.73;5.10;;;24.40;99.90;;;;;;4996169;28;20491;-65
2022/05/16 09:22:22;;;;;;;6.87;5.70;;;24.60;99.90;;;;;;4995086;28;20427;-65
2022/05/16 09:24:55;;;;;;;7.10;5.20;;;24.90;99.80;;;;;;4993792;28;20506;-64
2022/05/16 09:30:16;;;;;;;6.73;5.47;;;25.30;98.50;;;;;;4997328;28;20478;-64
2022/05/16 09:32:45;;;;;;;6.43;5.70;;;25.30;98.50;;;;;;5001005;28;20522;-65
2022/05/16 09:35:37;;;;;;;9.60;5.77;;;25.50;98.20;;;;;;4997713;28;20921;-64
2022/05/16 09:38:04;;;;;;;5.13;4.60;;;25.60;98.10;;;;;;5000970;28;20468;-64
2022/05/16 09:40:40;;;;;;;7.53;4.87;;;25.70;97.30;;;;;;5003825;28;20424;-64
2022/05/16 09:43:19;;;;;;;6.70;4.20;;;25.60;95.60;;;;;;5013719;28;20983;-64
2022/05/16 09:45:49;;;;;;;16.40;5.40;;;25.60;95.20;;;;;;4999050;28;20841;-64
2022/05/16 09:48:18;;;;;;;9.50;5.90;;;25.60;94.20;;;;;;5001440;28;20452;-65
2022/05/16 09:50:56;;;;;;;5.67;3.60;;;25.40;93.40;;;;;;4999175;28;20621;-64
2022/05/16 09:53:29;;;;;;;6.17;4.97;;;25.40;93.30;;;;;;5001085;28;20823;-64
2022/05/16 09:55:59;;;;;;;6.33;3.60;;;25.40;92.90;;;;;;4997286;28;20518;-64
2022/05/16 09:58:33;;;;;;;10.77;3.90;;;25.40;92.80;;;;;;4997386;28;20444;-64
2022/05/16 10:01:05;;;;;;;4.97;2.50;;;25.20;92.30;;;;;;5000364;28;20647;-64
2022/05/16 10:03:41;;;;;;;6.77;3.43;;;25.10;92.10;;;;;;4998211;28;20539;-64
2022/05/16 10:06:09;;;;;;;4.40;3.43;;;25.10;92.00;;;;;;4998695;28;20502;-64
2022/05/16 10:08:38;;;;;;;6.30;2.90;;;24.90;92.30;;;;;;4999385;28;20571;-64
2022/05/16 10:11:20;;;;;;;8.30;3.50;;;24.70;92.60;;;;;;4997929;28;20430;-64
2022/05/16 10:13:49;;;;;;;6.77;3.60;;;24.70;92.30;;;;;;4996135;28;20475;-64
2022/05/16 10:16:15;;;;;;;5.20;2.70;;;24.50;92.20;;;;;;5002263;28;20437;-64
2022/05/16 10:18:54;;;;;;;4.80;3.20;;;24.50;92.20;;;;;;4995057;28;20460;-64
2022/05/16 10:22:03;;;;;;;6.10;3.20;;;24.40;92.10;;;;;;4998496;28;20489;-64
2022/05/16 10:24:33;;;;;;;4.60;2.80;;;24.10;92.30;;;;;;4994971;28;20460;-64
2022/05/16 10:27:05;;;;;;;4.20;3.10;;;24.10;92.50;;;;;;4995614;28;20421;-64
2022/05/16 10:29:41;;;;;;;6.43;3.40;;;24.00;92.60;;;;;;5002295;28;20959;-65
2022/05/16 10:35:08;;;;;;;4.87;2.33;;;23.80;92.90;;;;;;4995699;28;20424;-65
2022/05/16 10:37:40;;;;;;;7.00;2.70;;;23.60;92.60;;;;;;4995589;28;20449;-65
2022/05/16 10:40:10;;;;;;;6.10;2.73;;;23.40;92.80;;;;;;4997689;28;20425;-65
2022/05/16 10:42:46;;;;;;;9.90;2.90;;;23.30;92.50;;;;;;4996985;28;20435;-65
2022/05/16 10:45:19;;;;;;;3.53;2.63;;;23.20;92.90;;;;;;4994316;28;20427;-65
2022/05/16 10:48:15;;;;;;;4.87;2.97;;;23.00;93.40;;;;;;5000042;28;20500;-64
2022/05/16 10:50:50;;;;;;;3.63;2.40;;;22.80;94.10;;;;;;4999257;28;20503;-64
2022/05/16 10:53:37;;;;;;;5.07;3.03;;;22.70;95.00;;;;;;4999398;28;20562;-65
2022/05/16 10:56:24;;;;;;;9.80;3.20;;;22.40;96.10;;;;;;4996086;28;20423;-64
2022/05/16 10:59:07;;;;;;;7.63;3.00;;;22.30;97.10;;;;;;5000310;28;21055;-64
2022/05/16 11:01:58;;;;;;;6.00;3.23;;;22.20;98.00;;;;;;4997476;28;20420;-64
2022/05/16 11:04:57;;;;;;;6.33;3.50;;;22.00;99.10;;;;;;4999466;28;20428;-64
2022/05/16 11:07:28;;;;;;;3.33;2.60;;;21.90;99.90;;;;;;4991845;28;20429;-64
2022/05/16 11:10:19;;;;;;;5.73;3.70;;;21.60;99.90;;;;;;4998910;28;20795;-64
2022/05/16 11:13:14;;;;;;;3.93;2.93;;;21.40;99.90;;;;;;4997282;28;20471;-64
2022/05/16 11:15:59;;;;;;;5.90;2.77;;;21.20;99.90;;;;;;4992847;28;20429;-64
2022/05/16 11:18:45;;;;;;;6.53;3.83;;;21.00;99.90;;;;;;4998077;28;20471;-64
2022/05/16 11:21:14;;;;;;;8.27;4.00;;;20.90;99.90;;;;;;4997349;28;20957;-64
2022/05/16 11:23:58;;;;;;;4.43;3.13;;;20.90;99.90;;;;;;4996741;28;20440;-64
2022/05/16 11:26:40;;;;;;;3.10;2.60;;;20.80;99.90;;;;;;4996621;28;20428;-64
2022/05/16 11:29:23;;;;;;;5.90;3.60;;;20.80;99.90;;;;;;4998982;28;20506;-64
2022/05/16 11:31:58;;;;;;;4.70;3.17;;;20.90;99.90;;;;;;4998775;28;20911;-64
2022/05/16 11:35:02;;;;;;;5.37;4.83;;;20.90;99.90;;;;;;4994291;28;20416;-64
2022/05/16 11:37:45;;;;;;;5.37;3.50;;;21.10;99.90;;;;;;4999394;28;20451;-64
2022/05/16 11:40:26;;;;;;;6.80;3.60;;;21.30;99.90;;;;;;4996427;28;20421;-64
2022/05/16 11:43:07;;;;;;;6.47;3.23;;;21.10;99.90;;;;;;4993730;28;20823;-64
2022/05/16 11:45:51;;;;;;;5.73;4.00;;;21.10;99.90;;;;;;4999057;28;20435;-64
2022/05/16 11:48:28;;;;;;;4.70;3.63;;;21.10;99.90;;;;;;4999221;28;20460;-64
2022/05/16 11:51:15;;;;;;;6.30;4.10;;;21.20;99.90;;;;;;4991693;28;20476;-64
2022/05/16 11:53:50;;;;;;;7.13;3.67;;;21.20;99.90;;;;;;4995258;28;20460;-64
2022/05/16 12:02:18;;;;;;;7.23;3.10;;;21.20;99.90;;;;;;4993478;28;20418;-64
2022/05/16 12:05:13;;;;;;;4.23;3.70;;;21.00;99.90;;;;;;4996711;28;20433;-64
2022/05/16 12:07:46;;;;;;;5.80;3.30;;;21.10;99.90;;;;;;4996953;28;20851;-64
2022/05/16 12:10:15;;;;;;;8.30;3.43;;;21.20;99.90;;;;;;4996555;28;20424;-64
2022/05/16 12:12:48;;;;;;;5.40;2.60;;;21.60;99.90;;;;;;4996408;28;20463;-65
2022/05/16 12:15:17;;;;;;;5.03;3.87;;;22.00;99.90;;;;;;5009152;28;20925;-64
2022/05/16 12:17:55;;;;;;;3.53;2.83;;;21.80;99.90;;;;;;4998900;28;20456;-64
2022/05/16 12:20:50;;;;;;;4.43;2.60;;;21.80;99.90;;;;;;4996358;28;20897;-64
2022/05/16 12:23:47;;;;;;;4.33;3.20;;;22.60;99.90;;;;;;4992489;28;20437;-64
2022/05/16 12:26:25;;;;;;;6.73;2.90;;;23.40;99.90;;;;;;4997558;28;20808;-64
2022/05/16 12:29:09;;;;;;;5.73;3.07;;;24.30;99.90;;;;;;4999854;28;20538;-64
2022/05/16 12:31:53;;;;;;;5.10;3.33;;;26.00;99.90;;;;;;4996485;28;20439;-64
2022/05/16 12:34:33;;;;;;;4.47;2.80;;;26.90;99.90;;;;;;4998512;28;20406;-64
2022/05/16 12:37:19;;;;;;;6.10;2.77;;;27.00;99.90;;;;;;4995614;28;20425;-64
2022/05/16 12:39:56;;;;;;;2.97;2.50;;;27.20;99.80;;;;;;4994260;28;21021;-64
2022/05/16 12:43:00;;;;;;;4.60;2.50;;;27.10;98.90;;;;;;4997115;28;20463;-64
2022/05/16 12:45:54;;;;;;;5.00;3.10;;;27.60;97.10;;;;;;4993999;28;20845;-64
2022/05/16 12:48:53;;;;;;;5.87;3.20;;;28.10;94.20;;;;;;4998730;28;20539;-64
2022/05/16 12:51:37;;;;;;;2.93;2.57;;;28.30;94.30;;;;;;4995441;28;20430;-64
2022/05/16 12:54:21;;;;;;;3.20;2.80;;;29.40;92.70;;;;;;4992892;28;21054;-64
2022/05/16 12:56:53;;;;;;;4.10;2.97;;;29.80;90.50;;;;;;4994781;28;20459;-64
2022/05/16 12:59:24;;;;;;;5.33;3.00;;;29.60;90.40;;;;;;4996978;28;20463;-64
2022/05/16 13:02:06;;;;;;;6.50;2.67;;;30.70;87.40;;;;;;4999902;28;20942;-64
2022/05/16 13:04:41;;;;;;;5.57;2.70;;;31.50;83.50;;;;;;4999863;28;20435;-65
2022/05/16 13:07:21;;;;;;;7.37;3.10;;;32.20;79.00;;;;;;5000484;28;20545;-64
2022/05/16 13:09:52;;;;;;;4.13;3.00;;;30.50;77.60;;;;;;4999978;28;20450;-64
2022/05/16 13:12:48;;;;;;;4.23;3.03;;;29.80;82.00;;;;;;4998727;28;20491;-64
2022/05/16 13:15:35;;;;;;;6.73;2.90;;;28.90;84.30;;;;;;4995131;28;20431;-64
2022/05/16 13:18:07;;;;;;;5.73;3.03;;;29.70;82.60;;;;;;5001239;28;20474;-64
2022/05/16 13:20:42;;;;;;;5.30;3.27;;;30.50;81.40;;;;;;4995904;28;20445;-64
2022/05/16 13:23:08;;;;;;;3.37;2.80;;;30.60;80.10;;;;;;4999123;28;20494;-64
2022/05/16 13:29:21;;;;;;;3.90;2.93;;;29.50;80.40;;;;;;5000088;28;20452;-64
2022/05/16 13:31:06;;;;;;;4.43;3.10;;;29.80;81.70;;;;;;4995588;28;20451;-64
2022/05/16 13:33:36;;;;;;;4.40;2.77;;;30.90;77.20;;;;;;4998117;28;20470;-64
2022/05/16 13:36:20;;;;;;;4.00;3.37;;;30.80;75.00;;;;;;4997422;28;20789;-64
2022/05/16 13:38:57;;;;;;;5.37;3.50;;;31.80;74.40;;;;;;4997399;28;20457;-64
2022/05/16 13:41:25;;;;;;;3.83;2.90;;;32.30;71.50;;;;;;4997179;28;20443;-64
2022/05/16 13:43:51;;;;;;;4.70;2.70;;;32.60;71.00;;;;;;5000792;28;20494;-64
2022/05/16 13:46:18;;;;;;;3.33;2.87;;;34.10;66.30;;;;;;4999985;28;20440;-64